Time;durP1;ratioP1;P1;durP2;ratioP2;P2;SDS_P1;SDS_P2;PMS_P1;PMS_P2;Temp;Humidity;BMP_temperature;BMP_pressure;BME280_temperature;BME280_humidity;BME280_pressure;Samples;Min_cycle;Max_cycle;Signal;HPM_P1;HPM_P2
2022/11/12 00:00:57;;;;;;;20.60;12.35;;;14.50;70.20;;;;;;2346596;57;21555;-56
2022/11/12 00:03:25;;;;;;;19.15;11.48;;;14.50;70.20;;;;;;2346278;57;21549;-59
2022/11/12 00:05:53;;;;;;;18.45;12.60;;;14.50;70.20;;;;;;2346975;57;21034;-56
2022/11/12 00:08:20;;;;;;;20.42;12.68;;;14.50;70.20;;;;;;2346300;57;21105;-57
2022/11/12 00:10:48;;;;;;;20.17;12.70;;;14.50;70.30;;;;;;2347024;57;21505;-59
2022/11/12 00:15:50;;;;;;;23.42;14.82;;;14.50;70.40;;;;;;2325798;57;27999;-58
2022/11/12 00:18:18;;;;;;;20.27;13.95;;;14.20;72.10;;;;;;2375617;56;21043;-58
2022/11/12 00:20:45;;;;;;;21.05;12.63;;;14.40;71.50;;;;;;2375148;56;21051;-57
2022/11/12 00:23:12;;;;;;;21.73;13.48;;;14.40;71.10;;;;;;2375485;56;21122;-59
2022/11/12 00:25:39;;;;;;;23.65;13.60;;;14.50;70.80;;;;;;2375787;56;21042;-58
2022/11/12 00:28:08;;;;;;;21.52;13.20;;;14.50;70.80;;;;;;2375743;56;21530;-58
2022/11/12 00:30:39;;;;;;;18.27;12.77;;;14.50;70.60;;;;;;2375784;56;21102;-57
2022/11/12 00:33:07;;;;;;;19.83;12.45;;;14.50;70.50;;;;;;2374881;56;21086;-59
2022/11/12 00:35:34;;;;;;;19.60;12.35;;;14.50;70.60;;;;;;2375647;56;21110;-60
2022/11/12 00:38:02;;;;;;;18.62;12.93;;;14.50;70.60;;;;;;2375630;56;21031;-58
2022/11/12 00:40:29;;;;;;;20.75;12.82;;;14.50;70.60;;;;;;2375786;56;21569;-59
2022/11/12 00:42:56;;;;;;;23.48;13.48;;;14.40;69.90;;;;;;2375465;56;21058;-58
2022/11/12 00:45:24;;;;;;;19.75;12.52;;;14.40;70.60;;;;;;2375534;56;21596;-60
2022/11/12 00:47:55;;;;;;;26.00;14.73;;;14.40;70.50;;;;;;2375948;56;21035;-59
2022/11/12 00:50:23;;;;;;;24.77;14.23;;;14.40;70.50;;;;;;2375157;56;21653;-58
2022/11/12 00:52:52;;;;;;;28.75;14.70;;;14.40;70.60;;;;;;2375743;56;21102;-60
2022/11/12 00:55:19;;;;;;;21.85;13.55;;;14.40;70.60;;;;;;2375511;56;21561;-58
2022/11/12 00:57:47;;;;;;;25.55;13.48;;;14.40;70.70;;;;;;2375342;56;21134;-59
2022/11/12 01:00:17;;;;;;;23.48;14.15;;;14.40;70.70;;;;;;2375875;56;21035;-57
2022/11/12 01:02:45;;;;;;;22.45;13.23;;;14.40;70.70;;;;;;2375349;56;21517;-58
2022/11/12 01:05:12;;;;;;;23.48;13.45;;;14.40;70.70;;;;;;2375581;56;21510;-56
2022/11/12 01:07:40;;;;;;;19.87;12.70;;;14.40;70.50;;;;;;2375634;56;21110;-57
2022/11/12 01:10:10;;;;;;;22.20;12.73;;;14.40;70.60;;;;;;2375656;56;21621;-58
2022/11/12 01:12:37;;;;;;;22.75;13.32;;;14.30;70.60;;;;;;2375287;56;21034;-57
2022/11/12 01:15:07;;;;;;;22.65;13.52;;;14.40;70.60;;;;;;2375572;56;21047;-60
2022/11/12 01:17:34;;;;;;;20.95;13.13;;;14.30;70.50;;;;;;2375492;56;21565;-56
2022/11/12 01:20:01;;;;;;;21.58;12.63;;;14.30;70.40;;;;;;2375937;56;21616;-59
2022/11/12 01:22:29;;;;;;;19.17;11.50;;;14.30;70.50;;;;;;2374826;56;21612;-58
2022/11/12 01:24:56;;;;;;;23.27;12.52;;;14.30;70.70;;;;;;2375923;56;22129;-60
2022/11/12 01:27:23;;;;;;;23.95;13.82;;;14.40;70.60;;;;;;2374431;56;21574;-58
2022/11/12 01:29:50;;;;;;;21.85;12.20;;;14.40;70.40;;;;;;2374510;56;21110;-60
2022/11/12 01:32:17;;;;;;;22.85;12.55;;;14.40;70.40;;;;;;2374495;56;21105;-59
2022/11/12 01:34:44;;;;;;;21.85;12.43;;;14.40;71.10;;;;;;2374736;56;21336;-57
2022/11/12 01:37:12;;;;;;;18.90;12.32;;;14.30;70.20;;;;;;2374675;56;21094;-58
2022/11/12 01:39:39;;;;;;;20.45;11.95;;;14.30;70.20;;;;;;2374367;56;21692;-56
2022/11/12 01:42:06;;;;;;;21.65;12.07;;;14.30;70.40;;;;;;2374600;56;21059;-59
2022/11/12 01:44:37;;;;;;;20.23;12.82;;;14.30;70.30;;;;;;2374396;56;21537;-59
2022/11/12 01:47:11;;;;;;;17.95;11.48;;;14.30;70.30;;;;;;2374298;56;21051;-57
2022/11/12 01:49:43;;;;;;;24.80;13.18;;;14.30;70.20;;;;;;2374671;56;21051;-59
2022/11/12 01:52:18;;;;;;;18.65;11.98;;;14.20;70.00;;;;;;2374783;56;21097;-59
2022/11/12 01:54:49;;;;;;;19.27;12.60;;;14.20;69.90;;;;;;2374997;56;21047;-55
2022/11/12 01:57:19;;;;;;;24.37;13.85;;;14.20;69.70;;;;;;2373835;56;21047;-56
2022/11/12 01:59:51;;;;;;;18.95;12.55;;;14.20;69.50;;;;;;2374544;56;21030;-57
2022/11/12 02:02:19;;;;;;;17.55;11.65;;;14.10;69.40;;;;;;2374948;56;21047;-58
2022/11/12 02:04:48;;;;;;;20.25;12.30;;;14.10;69.30;;;;;;2374466;56;21031;-55
2022/11/12 02:07:16;;;;;;;22.08;12.68;;;14.00;69.20;;;;;;2374523;56;21525;-59
2022/11/12 02:09:43;;;;;;;21.85;12.88;;;14.00;69.30;;;;;;2374727;56;21498;-59
2022/11/12 02:13:56;;;;;;;22.90;12.55;;;13.90;69.20;;;;;;2374626;56;21102;-60
2022/11/12 02:16:25;;;;;;;20.75;11.98;;;13.90;69.30;;;;;;2373810;56;21525;-59
2022/11/12 02:18:52;;;;;;;26.55;13.05;;;13.90;69.00;;;;;;2374542;56;21529;-55
2022/11/12 02:21:21;;;;;;;17.73;11.60;;;13.80;69.10;;;;;;2374723;56;21121;-60
2022/11/12 02:23:57;;;;;;;20.67;12.50;;;13.80;69.40;;;;;;2373895;56;21042;-58
2022/11/12 02:26:25;;;;;;;18.62;11.65;;;13.70;69.60;;;;;;2374954;56;21584;-54
2022/11/12 02:28:52;;;;;;;16.75;9.90;;;13.60;69.60;;;;;;2374560;56;21138;-57
2022/11/12 02:31:19;;;;;;;18.37;11.12;;;13.60;69.90;;;;;;2374416;56;21066;-57
2022/11/12 02:33:47;;;;;;;20.08;12.82;;;13.60;70.00;;;;;;2373926;56;21665;-55
2022/11/12 02:36:14;;;;;;;20.08;12.07;;;13.50;70.00;;;;;;2374195;56;21082;-55
2022/11/12 02:38:41;;;;;;;21.77;13.05;;;13.50;70.90;;;;;;2374763;56;21047;-57
2022/11/12 02:41:08;;;;;;;19.83;12.27;;;13.40;70.00;;;;;;2374397;56;21513;-59
2022/11/12 02:43:36;;;;;;;20.00;11.05;;;13.40;70.00;;;;;;2374685;56;21043;-57
2022/11/12 02:49:26;;;;;;;18.48;11.25;;;13.40;70.30;;;;;;2354078;56;21538;-59
2022/11/12 02:51:53;;;;;;;17.73;9.95;;;13.40;71.00;;;;;;2374040;56;21038;-55
2022/11/12 02:54:20;;;;;;;18.98;10.65;;;13.30;71.30;;;;;;2374700;56;21208;-57
2022/11/12 02:56:47;;;;;;;17.37;10.82;;;13.30;71.50;;;;;;2373851;56;21577;-59
2022/11/12 02:59:14;;;;;;;18.02;10.73;;;13.30;71.50;;;;;;2374683;56;21602;-59
2022/11/12 03:01:42;;;;;;;20.20;10.55;;;13.40;71.60;;;;;;2374827;56;21094;-58
2022/11/12 03:04:09;;;;;;;18.58;9.85;;;13.30;71.60;;;;;;2374704;56;21055;-58
2022/11/12 03:06:36;;;;;;;17.05;9.13;;;13.30;71.70;;;;;;2373709;56;21117;-59
2022/11/12 03:09:04;;;;;;;16.58;9.35;;;13.30;71.80;;;;;;2374708;56;21086;-60
2022/11/12 03:11:31;;;;;;;18.30;10.57;;;13.30;71.80;;;;;;2374408;56;21035;-57
2022/11/12 03:13:58;;;;;;;16.70;10.60;;;13.30;71.80;;;;;;2375026;56;21038;-56
2022/11/12 03:16:26;;;;;;;21.23;11.32;;;13.30;71.70;;;;;;2374023;56;21047;-60
2022/11/12 03:18:53;;;;;;;20.88;10.98;;;13.30;71.50;;;;;;2374561;56;21046;-60
2022/11/12 03:21:20;;;;;;;19.08;11.30;;;13.30;71.10;;;;;;2374386;56;21054;-55
2022/11/12 03:23:47;;;;;;;18.42;10.70;;;13.30;70.90;;;;;;2373765;56;21121;-59
2022/11/12 03:26:14;;;;;;;20.00;11.52;;;13.20;70.80;;;;;;2374331;56;21043;-57
2022/11/12 03:28:42;;;;;;;17.10;10.32;;;13.20;70.70;;;;;;2374570;56;21585;-57
2022/11/12 03:31:10;;;;;;;16.95;10.00;;;13.20;70.60;;;;;;2374785;56;21106;-60
2022/11/12 03:33:38;;;;;;;18.05;10.77;;;13.20;70.60;;;;;;2374425;56;22118;-58
2022/11/12 03:36:06;;;;;;;17.98;10.77;;;13.20;70.30;;;;;;2374578;56;21521;-60
2022/11/12 03:38:34;;;;;;;18.83;11.43;;;13.10;70.30;;;;;;2374811;56;21047;-60
2022/11/12 03:41:01;;;;;;;16.10;10.25;;;13.10;70.20;;;;;;2373361;56;21510;-56
2022/11/12 03:43:28;;;;;;;16.40;10.75;;;13.10;70.20;;;;;;2374796;56;21031;-56
2022/11/12 03:45:55;;;;;;;16.60;9.82;;;13.00;70.00;;;;;;2374352;56;21059;-58
2022/11/12 03:48:22;;;;;;;17.00;10.52;;;12.90;70.10;;;;;;2374269;56;21067;-58
2022/11/12 03:50:50;;;;;;;21.85;11.55;;;12.90;70.60;;;;;;2373865;56;21529;-58
2022/11/12 03:53:17;;;;;;;16.40;10.65;;;12.90;70.00;;;;;;2374584;56;21046;-59
2022/11/12 03:55:45;;;;;;;16.67;10.65;;;12.80;70.00;;;;;;2374454;56;21875;-59
2022/11/12 03:58:12;;;;;;;19.52;11.52;;;12.80;69.90;;;;;;2374647;56;21050;-56
2022/11/12 04:00:39;;;;;;;18.27;11.88;;;12.80;69.90;;;;;;2374586;56;21101;-60
2022/11/12 04:03:06;;;;;;;20.70;12.37;;;12.70;69.80;;;;;;2374393;56;21043;-57
2022/11/12 04:11:00;;;;;;;17.50;10.80;;;12.60;69.90;;;;;;2348121;57;21053;-59
2022/11/12 04:13:27;;;;;;;18.65;10.30;;;12.50;69.80;;;;;;2348241;57;21592;-59
2022/11/12 04:21:53;;;;;;;19.48;10.82;;;12.40;70.00;;;;;;2346526;57;20998;-61
2022/11/12 04:27:13;;;;;;;17.08;10.10;;;12.30;69.80;;;;;;2346859;57;21034;-55
2022/11/12 04:32:27;;;;;;;16.25;10.52;;;12.20;70.00;;;;;;2346617;57;21501;-59
2022/11/12 04:34:55;;;;;;;16.92;10.35;;;12.10;70.20;;;;;;2346852;57;21058;-57
2022/11/12 04:37:24;;;;;;;17.10;9.70;;;12.10;70.40;;;;;;2346360;57;21525;-58
2022/11/12 04:39:52;;;;;;;18.05;10.73;;;12.10;70.50;;;;;;2345878;57;21038;-58
2022/11/12 04:45:08;;;;;;;19.83;10.68;;;12.00;70.40;;;;;;2346594;57;21010;-59
2022/11/12 04:47:38;;;;;;;19.62;11.82;;;12.00;70.30;;;;;;2346250;57;21049;-60
2022/11/12 04:50:11;;;;;;;19.05;11.35;;;12.00;70.40;;;;;;2346386;57;21484;-59
2022/11/12 04:52:39;;;;;;;16.83;10.77;;;11.90;70.20;;;;;;2346704;57;21288;-57
2022/11/12 04:55:08;;;;;;;19.45;11.68;;;11.90;70.40;;;;;;2346993;57;21049;-57
2022/11/12 04:57:37;;;;;;;21.15;11.65;;;11.90;70.40;;;;;;2345491;57;21058;-58
2022/11/12 05:00:07;;;;;;;20.67;11.80;;;11.90;70.40;;;;;;2346869;57;21126;-56
2022/11/12 05:02:34;;;;;;;15.65;10.38;;;11.90;70.50;;;;;;2346245;57;21098;-60
2022/11/12 05:05:01;;;;;;;17.55;11.02;;;11.90;70.80;;;;;;2346620;57;21082;-56
2022/11/12 05:07:31;;;;;;;21.10;11.93;;;11.90;71.00;;;;;;2346444;57;21038;-58
2022/11/12 05:09:58;;;;;;;18.73;10.43;;;11.90;71.20;;;;;;2346263;57;21615;-59
2022/11/12 05:15:04;;;;;;;17.23;10.57;;;11.90;71.00;;;;;;2596975;52;22079;-61
2022/11/12 05:17:32;;;;;;;17.20;11.52;;;11.80;71.10;;;;;;2348128;57;21038;-58
2022/11/12 05:19:59;;;;;;;19.48;11.63;;;11.80;71.30;;;;;;2348553;57;21046;-59
2022/11/12 05:22:26;;;;;;;17.52;10.88;;;11.80;70.90;;;;;;2347982;57;21177;-58
2022/11/12 05:24:53;;;;;;;20.20;12.90;;;11.80;70.70;;;;;;2347644;57;21049;-57
2022/11/12 05:27:21;;;;;;;21.05;11.90;;;11.80;70.60;;;;;;2348434;57;21037;-59
2022/11/12 05:29:48;;;;;;;17.62;11.40;;;11.70;70.30;;;;;;2348191;57;21046;-59
2022/11/12 05:32:17;;;;;;;16.75;10.45;;;11.80;70.30;;;;;;2347310;57;21345;-59
2022/11/12 05:34:44;;;;;;;19.23;11.85;;;11.70;70.30;;;;;;2347903;57;21556;-58
2022/11/12 05:37:13;;;;;;;15.30;10.35;;;11.70;70.40;;;;;;2348410;57;21121;-58
2022/11/12 05:42:17;;;;;;;14.57;9.90;;;11.60;70.70;;;;;;2356585;57;22046;-59
2022/11/12 05:44:44;;;;;;;16.05;9.52;;;11.60;70.90;;;;;;2352105;56;21231;-56
2022/11/12 05:47:11;;;;;;;20.67;12.48;;;11.50;70.90;;;;;;2375467;56;21051;-58
2022/11/12 05:49:38;;;;;;;16.48;11.15;;;11.50;70.80;;;;;;2375654;56;21110;-56
2022/11/12 05:52:06;;;;;;;14.43;9.50;;;11.50;70.90;;;;;;2375475;56;21027;-56
2022/11/12 05:54:33;;;;;;;23.98;14.63;;;11.40;71.10;;;;;;2375466;56;21102;-55
2022/11/12 05:57:00;;;;;;;19.08;11.98;;;11.30;70.80;;;;;;2375734;56;21047;-58
2022/11/12 05:59:27;;;;;;;19.98;12.30;;;11.30;70.80;;;;;;2375805;56;21067;-58
2022/11/12 06:01:54;;;;;;;21.20;12.30;;;11.20;70.80;;;;;;2375392;56;21593;-56
2022/11/12 06:04:22;;;;;;;16.50;11.02;;;11.20;70.70;;;;;;2375354;56;21058;-57
2022/11/12 06:06:50;;;;;;;19.40;11.85;;;11.20;70.70;;;;;;2375453;56;21546;-59
2022/11/12 06:09:17;;;;;;;19.95;11.82;;;11.20;70.70;;;;;;2375462;56;21044;-55
2022/11/12 06:11:44;;;;;;;18.92;12.15;;;11.10;70.60;;;;;;2374679;56;21051;-56
2022/11/12 06:14:11;;;;;;;20.25;13.13;;;11.10;70.60;;;;;;2375853;56;21514;-56
2022/11/12 06:16:39;;;;;;;16.90;11.68;;;11.10;70.50;;;;;;2375787;56;21098;-57
2022/11/12 06:19:06;;;;;;;17.75;11.88;;;11.00;70.60;;;;;;2375643;56;21030;-59
2022/11/12 06:21:33;;;;;;;20.25;12.57;;;11.00;70.50;;;;;;2375698;56;21652;-59
2022/11/12 06:24:01;;;;;;;20.70;11.88;;;11.00;70.30;;;;;;2374315;56;21534;-55
2022/11/12 06:26:29;;;;;;;21.35;11.80;;;11.00;70.30;;;;;;2374830;56;21558;-59
2022/11/12 06:28:57;;;;;;;17.73;11.15;;;11.00;70.30;;;;;;2375109;56;21557;-55
2022/11/12 06:31:24;;;;;;;18.67;11.73;;;11.00;70.50;;;;;;2374955;56;21067;-61
2022/11/12 06:33:51;;;;;;;17.90;12.68;;;10.90;70.60;;;;;;2376064;56;21533;-61
2022/11/12 06:36:20;;;;;;;22.10;12.95;;;10.90;70.50;;;;;;2375720;56;21078;-61
2022/11/12 06:38:47;;;;;;;17.50;10.10;;;10.90;70.50;;;;;;2374814;56;21110;-61
2022/11/12 06:41:15;;;;;;;16.95;11.35;;;10.90;70.50;;;;;;2375422;56;21035;-61
2022/11/12 06:43:42;;;;;;;16.02;10.18;;;10.80;71.10;;;;;;2375839;56;21106;-60
2022/11/12 06:46:12;;;;;;;17.37;11.90;;;10.80;70.60;;;;;;2375965;56;21578;-61
2022/11/12 06:48:40;;;;;;;18.25;12.05;;;10.80;70.50;;;;;;2376133;56;22305;-61
2022/11/12 06:51:11;;;;;;;19.17;12.48;;;10.80;70.30;;;;;;2375600;56;21534;-61
2022/11/12 06:53:38;;;;;;;17.62;11.12;;;10.80;70.30;;;;;;2374747;56;21034;-61
2022/11/12 06:56:07;;;;;;;20.17;12.68;;;10.80;70.50;;;;;;2374193;56;21350;-61
2022/11/12 06:58:35;;;;;;;24.75;13.73;;;10.70;70.80;;;;;;2374893;56;21051;-61
2022/11/12 07:01:08;;;;;;;19.37;13.20;;;10.70;70.80;;;;;;2375015;56;21181;-61
2022/11/12 07:03:35;;;;;;;19.87;13.80;;;10.70;70.90;;;;;;2374928;56;21165;-61
2022/11/12 07:06:08;;;;;;;17.40;11.00;;;10.70;70.70;;;;;;2374761;56;21578;-61
2022/11/12 07:08:37;;;;;;;18.65;11.35;;;10.70;71.00;;;;;;2374907;56;21106;-61
2022/11/12 07:11:05;;;;;;;26.35;13.90;;;10.70;71.90;;;;;;2374991;56;21589;-61
2022/11/12 07:13:33;;;;;;;23.55;12.23;;;10.60;71.20;;;;;;2374367;56;21693;-61
2022/11/12 07:16:02;;;;;;;19.90;13.27;;;10.60;71.40;;;;;;2374490;56;21585;-61
2022/11/12 07:18:29;;;;;;;22.17;13.65;;;10.60;71.30;;;;;;2374633;56;21034;-61
2022/11/12 07:21:01;;;;;;;21.50;13.10;;;10.60;71.10;;;;;;2374885;56;21217;-61
2022/11/12 07:23:31;;;;;;;21.05;12.93;;;10.60;71.10;;;;;;2374572;56;21518;-59
2022/11/12 07:26:00;;;;;;;19.02;12.32;;;10.60;71.10;;;;;;2374729;56;21082;-61
2022/11/12 07:28:28;;;;;;;19.48;11.95;;;10.60;71.20;;;;;;2374238;56;21561;-61
2022/11/12 07:30:57;;;;;;;18.73;12.20;;;10.60;71.20;;;;;;2374460;56;21510;-61
2022/11/12 07:33:25;;;;;;;22.15;13.82;;;10.60;71.40;;;;;;2374484;56;21111;-60
2022/11/12 07:36:04;;;;;;;19.65;12.75;;;10.60;71.40;;;;;;2373941;56;21066;-61
2022/11/12 07:38:33;;;;;;;21.62;13.85;;;10.60;71.30;;;;;;2374625;56;21301;-61
2022/11/12 07:41:01;;;;;;;22.52;13.90;;;10.60;71.20;;;;;;2374520;56;21059;-60
2022/11/12 07:43:29;;;;;;;22.52;13.60;;;10.60;71.30;;;;;;2374258;56;21117;-60
2022/11/12 07:46:01;;;;;;;20.48;12.88;;;10.60;71.30;;;;;;2374391;56;21679;-61
2022/11/12 07:48:30;;;;;;;21.15;12.70;;;10.60;71.40;;;;;;2374587;56;21530;-61
2022/11/12 07:51:02;;;;;;;23.55;14.27;;;10.60;71.50;;;;;;2374717;56;21050;-61
2022/11/12 07:53:29;;;;;;;19.00;12.80;;;10.60;71.50;;;;;;2374366;56;21502;-61
2022/11/12 07:55:57;;;;;;;23.25;13.77;;;10.60;71.50;;;;;;2374262;56;21552;-61
2022/11/12 07:58:25;;;;;;;20.73;13.32;;;10.60;72.30;;;;;;2374152;56;21586;-60
2022/11/12 08:00:53;;;;;;;25.88;14.00;;;10.60;71.70;;;;;;2374540;56;21565;-60
2022/11/12 08:03:20;;;;;;;20.70;12.65;;;10.60;71.70;;;;;;2374582;56;21326;-61
2022/11/12 08:05:48;;;;;;;22.00;13.18;;;10.60;71.70;;;;;;2362224;53;21080;-63
2022/11/12 08:08:16;;;;;;;21.83;13.50;;;10.70;71.60;;;;;;2316357;58;21138;-62
2022/11/12 08:10:43;;;;;;;23.77;14.43;;;10.70;71.70;;;;;;2315358;58;22131;-63
2022/11/12 08:13:10;;;;;;;24.05;14.02;;;10.70;71.60;;;;;;2312133;58;21061;-62
2022/11/12 08:15:37;;;;;;;29.42;14.40;;;10.70;71.80;;;;;;2298539;58;21101;-62
2022/11/12 08:18:05;;;;;;;19.62;12.68;;;10.70;72.00;;;;;;2288146;59;21585;-62
2022/11/12 08:20:32;;;;;;;16.12;10.65;;;10.70;72.20;;;;;;2286712;59;21070;-62
2022/11/12 08:23:02;;;;;;;17.85;11.12;;;10.70;72.70;;;;;;2287934;58;21529;-63
2022/11/12 08:25:29;;;;;;;17.67;11.82;;;10.70;73.00;;;;;;2287751;58;21122;-62
2022/11/12 08:27:57;;;;;;;21.42;13.07;;;10.70;73.10;;;;;;2287783;58;21218;-62
2022/11/12 08:30:25;;;;;;;18.48;13.18;;;10.70;73.10;;;;;;2287341;59;21624;-63
2022/11/12 08:32:57;;;;;;;21.33;13.35;;;10.70;73.00;;;;;;2287055;58;21592;-62
2022/11/12 08:35:25;;;;;;;19.67;12.82;;;10.80;73.20;;;;;;2287520;59;21067;-63
2022/11/12 08:37:57;;;;;;;22.67;12.82;;;10.80;74.00;;;;;;2287520;59;21150;-63
2022/11/12 08:40:24;;;;;;;20.80;12.90;;;10.80;73.30;;;;;;2287630;58;21680;-63
2022/11/12 08:42:58;;;;;;;20.23;13.70;;;10.80;73.10;;;;;;2287787;58;21597;-62
2022/11/12 08:45:26;;;;;;;17.95;11.52;;;10.90;73.10;;;;;;2287874;58;21613;-63
2022/11/12 08:47:57;;;;;;;20.20;11.60;;;10.90;72.90;;;;;;2287684;59;21050;-62
2022/11/12 08:50:25;;;;;;;18.20;12.32;;;10.90;72.90;;;;;;2288107;59;21533;-63
2022/11/12 08:52:52;;;;;;;16.55;11.63;;;11.00;73.80;;;;;;2287544;58;21072;-62
2022/11/12 08:55:19;;;;;;;22.90;12.43;;;11.00;73.20;;;;;;2287878;58;21664;-63
2022/11/12 08:57:46;;;;;;;21.60;13.25;;;11.00;73.20;;;;;;2288034;59;21173;-63
2022/11/12 09:00:16;;;;;;;21.20;12.37;;;11.00;73.10;;;;;;2287895;58;21089;-59
2022/11/12 09:02:43;;;;;;;19.15;12.23;;;11.10;73.10;;;;;;2287419;59;21111;-64
2022/11/12 09:05:10;;;;;;;15.77;10.05;;;11.10;73.30;;;;;;2288059;58;21113;-64
2022/11/12 09:07:38;;;;;;;27.10;13.52;;;11.10;73.70;;;;;;2287330;58;21074;-64
2022/11/12 09:10:07;;;;;;;19.10;10.93;;;11.10;74.00;;;;;;2287913;58;21122;-64
2022/11/12 09:12:34;;;;;;;19.50;12.25;;;11.20;73.90;;;;;;2288207;59;21136;-63
2022/11/12 09:15:02;;;;;;;20.67;12.07;;;11.20;74.60;;;;;;2288121;58;21075;-62
2022/11/12 09:17:29;;;;;;;21.25;12.35;;;11.20;73.60;;;;;;2288254;59;21058;-62
2022/11/12 09:19:57;;;;;;;19.45;12.13;;;11.30;73.60;;;;;;2288035;58;21736;-62
2022/11/12 09:22:24;;;;;;;21.12;13.05;;;11.30;73.60;;;;;;2288062;59;21556;-63
2022/11/12 09:24:51;;;;;;;21.37;12.13;;;11.30;73.50;;;;;;2287491;58;21063;-62
2022/11/12 09:27:18;;;;;;;22.30;12.35;;;11.30;73.40;;;;;;2287455;58;21122;-58
2022/11/12 09:29:46;;;;;;;20.08;11.88;;;11.40;73.60;;;;;;2287229;58;22137;-64
2022/11/12 09:32:13;;;;;;;21.95;12.70;;;11.40;73.60;;;;;;2287326;58;21613;-64
2022/11/12 09:34:40;;;;;;;17.40;10.57;;;11.40;73.50;;;;;;2287288;59;21078;-64
2022/11/12 09:37:07;;;;;;;16.45;9.77;;;11.50;73.60;;;;;;2287994;59;21153;-64
2022/11/12 09:39:35;;;;;;;20.40;12.20;;;11.50;73.60;;;;;;2287471;59;21142;-64
2022/11/12 09:42:08;;;;;;;20.27;12.80;;;11.60;73.60;;;;;;2287748;58;21122;-64
2022/11/12 09:44:38;;;;;;;16.90;10.77;;;11.60;73.40;;;;;;2287975;58;21134;-64
2022/11/12 09:47:13;;;;;;;18.85;11.93;;;11.60;73.40;;;;;;2287849;59;21661;-64
2022/11/12 09:49:47;;;;;;;18.23;10.93;;;11.70;73.40;;;;;;2287749;59;21568;-63
2022/11/12 09:52:20;;;;;;;21.67;11.85;;;11.70;73.40;;;;;;2287393;59;21098;-64
2022/11/12 09:54:54;;;;;;;26.67;11.93;;;11.70;73.30;;;;;;2287420;58;21636;-64
2022/11/12 09:57:21;;;;;;;19.15;11.05;;;11.80;73.30;;;;;;2287960;59;21089;-63
2022/11/12 09:59:48;;;;;;;16.90;10.77;;;11.80;73.30;;;;;;2287315;58;21122;-63
2022/11/12 10:02:26;;;;;;;19.10;11.15;;;11.90;73.20;;;;;;2287584;58;21549;-63
2022/11/12 10:05:02;;;;;;;19.12;12.45;;;11.90;73.10;;;;;;2287374;58;21067;-63
2022/11/12 10:07:40;;;;;;;23.33;11.57;;;11.90;73.00;;;;;;2287522;59;21059;-64
2022/11/12 10:10:15;;;;;;;20.27;11.45;;;12.00;72.80;;;;;;2287025;58;21130;-64
2022/11/12 10:13:05;;;;;;;20.98;11.57;;;12.00;72.80;;;;;;2286781;59;21070;-63
2022/11/12 10:18:42;;;;;;;19.27;11.63;;;12.00;72.80;;;;;;2287824;59;20994;-63
2022/11/12 10:21:20;;;;;;;17.42;10.52;;;12.00;73.10;;;;;;2287528;59;21078;-63
2022/11/12 10:23:51;;;;;;;17.45;10.10;;;12.10;73.30;;;;;;2287357;58;21131;-63
2022/11/12 10:26:20;;;;;;;18.52;11.15;;;12.10;73.40;;;;;;2287663;58;21063;-63
2022/11/12 10:28:50;;;;;;;18.98;11.07;;;12.10;73.50;;;;;;2287493;58;21145;-63
2022/11/12 10:31:19;;;;;;;22.75;11.38;;;12.10;73.50;;;;;;2287626;58;22438;-63
2022/11/12 10:33:47;;;;;;;16.50;11.02;;;12.20;73.60;;;;;;2287837;58;21526;-63
2022/11/12 10:36:28;;;;;;;17.52;10.95;;;12.20;73.60;;;;;;2287775;58;21078;-63
2022/11/12 10:38:56;;;;;;;21.83;11.82;;;12.30;73.80;;;;;;2287448;59;21158;-63
2022/11/12 10:41:27;;;;;;;16.98;10.55;;;12.30;73.50;;;;;;2287787;58;21577;-63
2022/11/12 10:43:57;;;;;;;18.80;11.55;;;12.30;73.50;;;;;;2286800;58;22057;-63
2022/11/12 10:46:26;;;;;;;18.73;10.60;;;12.40;73.60;;;;;;2287686;59;22239;-63
2022/11/12 10:48:59;;;;;;;19.50;9.73;;;12.40;73.50;;;;;;2287954;59;21122;-63
2022/11/12 10:51:29;;;;;;;19.50;11.18;;;12.50;73.50;;;;;;2288092;59;21533;-63
2022/11/12 10:53:57;;;;;;;15.25;9.95;;;12.50;73.30;;;;;;2287593;59;21557;-63
2022/11/12 10:56:30;;;;;;;17.85;10.35;;;12.50;73.10;;;;;;2287349;59;21685;-63
2022/11/12 10:59:13;;;;;;;16.33;9.35;;;12.60;73.00;;;;;;2287736;59;21101;-63
2022/11/12 11:01:40;;;;;;;15.80;10.23;;;12.60;72.90;;;;;;2287338;59;21560;-63
2022/11/12 11:04:27;;;;;;;12.30;8.27;;;12.60;72.60;;;;;;2287423;59;21138;-63
2022/11/12 11:07:04;;;;;;;15.70;9.02;;;12.70;72.70;;;;;;2287463;59;22486;-57
2022/11/12 11:09:32;;;;;;;16.95;9.35;;;12.70;72.50;;;;;;2286971;59;21548;-56
2022/11/12 11:12:00;;;;;;;17.75;10.95;;;12.70;72.40;;;;;;2286732;59;21039;-60
2022/11/12 11:14:31;;;;;;;21.75;10.10;;;12.80;72.50;;;;;;2286196;59;21577;-60
2022/11/12 11:17:03;;;;;;;16.55;9.63;;;12.80;72.50;;;;;;2286454;59;21179;-61
2022/11/12 11:19:36;;;;;;;35.00;12.07;;;12.80;72.40;;;;;;2287146;59;21102;-61
2022/11/12 11:22:38;;;;;;;16.77;8.90;;;12.90;72.60;;;;;;2285375;59;21086;-61
2022/11/12 11:25:17;;;;;;;18.58;8.48;;;12.90;72.50;;;;;;2285698;58;21150;-61
2022/11/12 11:27:58;;;;;;;13.35;8.35;;;13.00;72.40;;;;;;2286442;59;21115;-62
2022/11/12 11:30:26;;;;;;;13.75;8.32;;;13.00;72.00;;;;;;2285298;59;21533;-60
2022/11/12 11:33:23;;;;;;;19.65;9.15;;;13.10;72.00;;;;;;2285857;59;22145;-61
2022/11/12 11:36:05;;;;;;;18.20;9.40;;;13.10;72.00;;;;;;2284521;59;21681;-62
2022/11/12 11:38:48;;;;;;;14.10;8.70;;;13.10;72.00;;;;;;2286161;59;21098;-61
2022/11/12 11:41:41;;;;;;;15.95;8.63;;;13.20;71.90;;;;;;2284091;59;21621;-62
2022/11/12 11:44:20;;;;;;;11.97;7.47;;;13.20;71.60;;;;;;2283357;59;21079;-61
2022/11/12 11:46:58;;;;;;;11.05;7.45;;;13.30;71.50;;;;;;2285578;59;21979;-62
2022/11/12 11:49:50;;;;;;;14.32;8.63;;;13.30;71.60;;;;;;2282860;59;21733;-60
2022/11/12 11:52:36;;;;;;;12.85;8.32;;;13.40;71.80;;;;;;2282950;59;21649;-62
2022/11/12 11:55:27;;;;;;;14.38;7.85;;;13.50;71.80;;;;;;2287246;59;21684;-61
2022/11/12 11:58:05;;;;;;;12.80;7.28;;;13.50;71.90;;;;;;2286941;59;22410;-62
2022/11/12 12:00:43;;;;;;;14.02;7.53;;;13.50;71.70;;;;;;2286712;59;21626;-61
2022/11/12 12:06:15;;;;;;;12.85;6.80;;;13.70;71.80;;;;;;2339975;57;22108;-57
2022/11/12 12:11:42;;;;;;;12.63;7.00;;;13.90;70.40;;;;;;2356227;57;22610;-60
2022/11/12 12:14:28;;;;;;;11.25;6.15;;;13.90;70.10;;;;;;2348355;57;21044;-59
2022/11/12 12:17:06;;;;;;;10.10;6.47;;;14.00;70.00;;;;;;2320855;58;21091;-60
2022/11/12 12:19:50;;;;;;;8.98;5.62;;;14.10;69.20;;;;;;2321154;58;21040;-60
2022/11/12 12:22:23;;;;;;;11.82;7.03;;;14.10;68.90;;;;;;2320745;58;22162;-60
2022/11/12 12:24:52;;;;;;;;;;;14.20;68.80;;;;;;2324430;58;21155;-59
2022/11/12 12:27:23;;;;;;;10.98;6.62;;;14.30;68.60;;;;;;2320819;58;20127;-60
2022/11/12 12:29:55;;;;;;;8.93;5.90;;;14.30;68.40;;;;;;2320979;58;22212;-61
2022/11/12 12:32:30;;;;;;;11.27;7.05;;;14.30;68.20;;;;;;2319497;58;21079;-60
2022/11/12 12:35:05;;;;;;;11.30;6.60;;;14.40;68.10;;;;;;2320129;58;21076;-61
2022/11/12 12:37:38;;;;;;;15.80;6.10;;;14.50;68.00;;;;;;2321092;58;21106;-60
2022/11/12 12:40:17;;;;;;;18.48;6.93;;;14.60;68.10;;;;;;2321355;58;21366;-60
2022/11/12 12:42:53;;;;;;;12.15;6.37;;;14.70;67.90;;;;;;2320932;58;21051;-61
2022/11/12 12:45:33;;;;;;;10.95;5.87;;;14.70;67.40;;;;;;2320969;58;21064;-60
2022/11/12 12:48:03;;;;;;;9.90;6.37;;;14.80;67.30;;;;;;2320537;58;21072;-61
2022/11/12 12:50:31;;;;;;;10.15;6.05;;;14.80;67.00;;;;;;2319989;58;21543;-63
2022/11/12 12:53:04;;;;;;;10.50;6.10;;;14.80;66.60;;;;;;2320492;58;21578;-60
2022/11/12 12:55:39;;;;;;;16.23;6.47;;;14.80;66.50;;;;;;2321038;58;21126;-61
2022/11/12 12:58:17;;;;;;;8.15;5.47;;;14.80;66.20;;;;;;2321450;58;21060;-61
2022/11/12 13:00:49;;;;;;;8.55;5.87;;;14.80;66.30;;;;;;2321074;58;21047;-61
2022/11/12 13:03:52;;;;;;;9.65;5.43;;;14.80;66.70;;;;;;2320836;58;21163;-60
2022/11/12 13:06:30;;;;;;;8.63;5.80;;;14.90;66.30;;;;;;2320558;58;21543;-61
2022/11/12 13:09:00;;;;;;;12.88;6.47;;;14.90;66.00;;;;;;2320132;58;22166;-61
2022/11/12 13:15:12;;;;;;;8.32;5.25;;;14.80;66.60;;;;;;2320972;58;21013;-62
2022/11/12 13:17:51;;;;;;;9.38;5.62;;;14.80;66.30;;;;;;2320832;58;21609;-61
2022/11/12 13:20:49;;;;;;;8.07;5.00;;;14.80;66.40;;;;;;2320805;58;21114;-63
2022/11/12 13:26:43;;;;;;;9.68;5.25;;;14.80;66.90;;;;;;2377775;56;22144;-60
2022/11/12 13:32:29;;;;;;;11.45;5.40;;;14.70;67.10;;;;;;2354598;57;22525;-61
2022/11/12 13:35:19;;;;;;;8.27;5.32;;;14.70;67.40;;;;;;2350449;56;21066;-60
2022/11/12 13:37:49;;;;;;;15.57;5.75;;;14.70;67.60;;;;;;2373586;56;21529;-62